sensor_id;sensor_type;location;lat;lon;timestamp;P1;durP1;ratioP1;P2;durP2;ratioP2
1358;SDS011;673;48.098;14.422;2023-05-10T00:01:34;2.40;;;2.13;;
1358;SDS011;673;48.098;14.422;2023-05-10T00:04:01;3.17;;;2.90;;
1358;SDS011;673;48.098;14.422;2023-05-10T00:06:28;2.90;;;2.70;;
1358;SDS011;673;48.098;14.422;2023-05-10T00:08:56;4.33;;;3.10;;
1358;SDS011;673;48.098;14.422;2023-05-10T00:11:25;3.23;;;2.87;;
1358;SDS011;673;48.098;14.422;2023-05-10T00:13:52;3.27;;;2.73;;
1358;SDS011;673;48.098;14.422;2023-05-10T00:16:19;2.70;;;2.50;;
1358;SDS011;673;48.098;14.422;2023-05-10T00:18:46;4.03;;;2.37;;
1358;SDS011;673;48.098;14.422;2023-05-10T00:21:13;2.73;;;2.53;;
1358;SDS011;673;48.098;14.422;2023-05-10T00:23:40;3.57;;;2.87;;
1358;SDS011;673;48.098;14.422;2023-05-10T00:26:07;3.50;;;2.73;;
1358;SDS011;673;48.098;14.422;2023-05-10T00:28:35;3.57;;;2.20;;
1358;SDS011;673;48.098;14.422;2023-05-10T00:31:02;3.47;;;2.27;;
1358;SDS011;673;48.098;14.422;2023-05-10T00:33:29;3.53;;;3.20;;
1358;SDS011;673;48.098;14.422;2023-05-10T00:35:56;3.27;;;2.23;;
1358;SDS011;673;48.098;14.422;2023-05-10T00:38:23;2.93;;;2.50;;
1358;SDS011;673;48.098;14.422;2023-05-10T00:40:50;3.00;;;2.67;;
1358;SDS011;673;48.098;14.422;2023-05-10T00:43:17;4.23;;;2.27;;
1358;SDS011;673;48.098;14.422;2023-05-10T00:45:46;2.47;;;2.30;;
1358;SDS011;673;48.098;14.422;2023-05-10T00:48:13;2.43;;;2.23;;
1358;SDS011;673;48.098;14.422;2023-05-10T00:50:40;3.27;;;2.97;;
1358;SDS011;673;48.098;14.422;2023-05-10T00:53:07;2.20;;;2.00;;
1358;SDS011;673;48.098;14.422;2023-05-10T00:55:35;3.70;;;2.87;;
1358;SDS011;673;48.098;14.422;2023-05-10T00:58:02;3.20;;;2.90;;
1358;SDS011;673;48.098;14.422;2023-05-10T01:00:30;2.90;;;2.10;;
1358;SDS011;673;48.098;14.422;2023-05-10T01:03:00;3.30;;;3.00;;
1358;SDS011;673;48.098;14.422;2023-05-10T01:05:27;3.80;;;3.50;;
1358;SDS011;673;48.098;14.422;2023-05-10T01:07:55;4.60;;;3.43;;
1358;SDS011;673;48.098;14.422;2023-05-10T01:10:22;3.50;;;2.97;;
1358;SDS011;673;48.098;14.422;2023-05-10T01:12:50;2.70;;;2.03;;
1358;SDS011;673;48.098;14.422;2023-05-10T01:15:17;3.60;;;1.93;;
1358;SDS011;673;48.098;14.422;2023-05-10T01:17:45;6.03;;;3.53;;
1358;SDS011;673;48.098;14.422;2023-05-10T01:20:15;3.03;;;2.73;;
1358;SDS011;673;48.098;14.422;2023-05-10T01:22:48;3.20;;;2.90;;
1358;SDS011;673;48.098;14.422;2023-05-10T01:25:32;7.30;;;3.03;;
1358;SDS011;673;48.098;14.422;2023-05-10T01:28:16;5.70;;;2.83;;
1358;SDS011;673;48.098;14.422;2023-05-10T01:31:03;3.80;;;2.83;;
1358;SDS011;673;48.098;14.422;2023-05-10T01:33:43;7.07;;;3.03;;
1358;SDS011;673;48.098;14.422;2023-05-10T01:36:19;3.00;;;2.70;;
1358;SDS011;673;48.098;14.422;2023-05-10T01:38:53;2.83;;;2.63;;
1358;SDS011;673;48.098;14.422;2023-05-10T01:41:27;3.57;;;3.00;;
1358;SDS011;673;48.098;14.422;2023-05-10T01:44:02;3.13;;;2.93;;
1358;SDS011;673;48.098;14.422;2023-05-10T01:46:41;4.10;;;3.70;;
1358;SDS011;673;48.098;14.422;2023-05-10T01:49:10;4.70;;;2.97;;
1358;SDS011;673;48.098;14.422;2023-05-10T01:51:44;3.17;;;2.63;;
1358;SDS011;673;48.098;14.422;2023-05-10T01:54:13;3.97;;;3.30;;
1358;SDS011;673;48.098;14.422;2023-05-10T01:56:44;2.50;;;2.30;;
1358;SDS011;673;48.098;14.422;2023-05-10T01:59:15;2.90;;;2.60;;
1358;SDS011;673;48.098;14.422;2023-05-10T02:01:45;4.30;;;2.90;;
1358;SDS011;673;48.098;14.422;2023-05-10T02:04:15;3.70;;;2.90;;
1358;SDS011;673;48.098;14.422;2023-05-10T02:06:43;7.03;;;4.10;;
1358;SDS011;673;48.098;14.422;2023-05-10T02:09:13;4.27;;;3.73;;
1358;SDS011;673;48.098;14.422;2023-05-10T02:11:41;3.63;;;3.33;;
1358;SDS011;673;48.098;14.422;2023-05-10T02:14:10;3.67;;;3.27;;
1358;SDS011;673;48.098;14.422;2023-05-10T02:16:38;4.50;;;4.10;;
1358;SDS011;673;48.098;14.422;2023-05-10T02:19:06;5.03;;;3.97;;
1358;SDS011;673;48.098;14.422;2023-05-10T02:21:36;5.50;;;3.67;;
1358;SDS011;673;48.098;14.422;2023-05-10T02:24:05;4.60;;;3.87;;
1358;SDS011;673;48.098;14.422;2023-05-10T02:26:34;5.10;;;4.50;;
1358;SDS011;673;48.098;14.422;2023-05-10T02:29:02;6.20;;;5.33;;
1358;SDS011;673;48.098;14.422;2023-05-10T02:31:32;5.47;;;4.90;;
1358;SDS011;673;48.098;14.422;2023-05-10T02:33:59;4.83;;;4.40;;
1358;SDS011;673;48.098;14.422;2023-05-10T02:36:27;6.50;;;5.90;;
1358;SDS011;673;48.098;14.422;2023-05-10T02:38:57;5.80;;;5.17;;
1358;SDS011;673;48.098;14.422;2023-05-10T02:41:26;5.57;;;5.03;;
1358;SDS011;673;48.098;14.422;2023-05-10T02:43:56;8.40;;;4.87;;
1358;SDS011;673;48.098;14.422;2023-05-10T02:46:25;5.20;;;4.70;;
1358;SDS011;673;48.098;14.422;2023-05-10T02:48:53;4.90;;;4.40;;
1358;SDS011;673;48.098;14.422;2023-05-10T02:51:20;6.43;;;4.50;;
1358;SDS011;673;48.098;14.422;2023-05-10T02:53:50;4.70;;;3.90;;
1358;SDS011;673;48.098;14.422;2023-05-10T02:56:23;4.73;;;4.23;;
1358;SDS011;673;48.098;14.422;2023-05-10T02:58:54;6.87;;;4.50;;
1358;SDS011;673;48.098;14.422;2023-05-10T03:01:21;6.40;;;5.13;;
1358;SDS011;673;48.098;14.422;2023-05-10T03:03:49;5.57;;;4.97;;
1358;SDS011;673;48.098;14.422;2023-05-10T03:06:15;4.33;;;3.93;;
1358;SDS011;673;48.098;14.422;2023-05-10T03:08:42;4.50;;;4.20;;
1358;SDS011;673;48.098;14.422;2023-05-10T03:11:16;4.17;;;3.80;;
1358;SDS011;673;48.098;14.422;2023-05-10T03:13:56;4.73;;;4.23;;
1358;SDS011;673;48.098;14.422;2023-05-10T03:16:35;6.10;;;5.50;;
1358;SDS011;673;48.098;14.422;2023-05-10T03:19:10;5.90;;;4.77;;
1358;SDS011;673;48.098;14.422;2023-05-10T03:21:43;4.57;;;4.20;;
1358;SDS011;673;48.098;14.422;2023-05-10T03:24:15;5.77;;;5.27;;
1358;SDS011;673;48.098;14.422;2023-05-10T03:26:46;4.73;;;4.30;;
1358;SDS011;673;48.098;14.422;2023-05-10T03:29:15;5.80;;;5.20;;
1358;SDS011;673;48.098;14.422;2023-05-10T03:31:43;6.20;;;5.30;;
1358;SDS011;673;48.098;14.422;2023-05-10T03:34:10;6.23;;;5.10;;
1358;SDS011;673;48.098;14.422;2023-05-10T03:36:37;5.20;;;4.70;;
1358;SDS011;673;48.098;14.422;2023-05-10T03:39:04;5.23;;;4.10;;
1358;SDS011;673;48.098;14.422;2023-05-10T03:41:31;5.47;;;4.97;;
1358;SDS011;673;48.098;14.422;2023-05-10T03:43:59;5.33;;;4.83;;
1358;SDS011;673;48.098;14.422;2023-05-10T03:46:26;8.57;;;5.20;;
1358;SDS011;673;48.098;14.422;2023-05-10T03:48:53;4.80;;;4.40;;
1358;SDS011;673;48.098;14.422;2023-05-10T03:51:20;5.07;;;4.60;;
1358;SDS011;673;48.098;14.422;2023-05-10T03:53:47;4.90;;;4.40;;
1358;SDS011;673;48.098;14.422;2023-05-10T03:56:14;6.00;;;5.07;;
1358;SDS011;673;48.098;14.422;2023-05-10T03:58:41;5.17;;;4.70;;
1358;SDS011;673;48.098;14.422;2023-05-10T04:01:09;3.97;;;3.57;;
1358;SDS011;673;48.098;14.422;2023-05-10T04:03:36;5.10;;;4.50;;
1358;SDS011;673;48.098;14.422;2023-05-10T04:06:03;5.43;;;4.00;;
1358;SDS011;673;48.098;14.422;2023-05-10T04:08:32;6.03;;;4.60;;
1358;SDS011;673;48.098;14.422;2023-05-10T04:11:05;5.53;;;5.00;;
1358;SDS011;673;48.098;14.422;2023-05-10T04:13:33;4.77;;;4.30;;
1358;SDS011;673;48.098;14.422;2023-05-10T04:16:00;5.20;;;4.60;;
1358;SDS011;673;48.098;14.422;2023-05-10T04:18:28;3.53;;;3.07;;
1358;SDS011;673;48.098;14.422;2023-05-10T04:20:55;5.80;;;5.30;;
1358;SDS011;673;48.098;14.422;2023-05-10T04:23:22;4.40;;;4.00;;
1358;SDS011;673;48.098;14.422;2023-05-10T04:25:49;3.60;;;3.30;;
1358;SDS011;673;48.098;14.422;2023-05-10T04:28:16;5.60;;;4.97;;
1358;SDS011;673;48.098;14.422;2023-05-10T04:30:43;4.83;;;4.40;;
1358;SDS011;673;48.098;14.422;2023-05-10T04:33:10;4.80;;;4.40;;
1358;SDS011;673;48.098;14.422;2023-05-10T04:35:39;4.40;;;4.00;;
1358;SDS011;673;48.098;14.422;2023-05-10T04:38:06;4.67;;;4.00;;
1358;SDS011;673;48.098;14.422;2023-05-10T04:40:33;4.33;;;3.93;;
1358;SDS011;673;48.098;14.422;2023-05-10T04:43:00;3.70;;;3.40;;
1358;SDS011;673;48.098;14.422;2023-05-10T04:45:27;4.93;;;4.43;;
1358;SDS011;673;48.098;14.422;2023-05-10T04:47:54;7.67;;;4.33;;
1358;SDS011;673;48.098;14.422;2023-05-10T04:50:21;4.33;;;3.80;;
1358;SDS011;673;48.098;14.422;2023-05-10T04:52:49;4.70;;;3.60;;
1358;SDS011;673;48.098;14.422;2023-05-10T04:55:16;4.13;;;3.73;;
1358;SDS011;673;48.098;14.422;2023-05-10T04:57:43;5.10;;;4.60;;
1358;SDS011;673;48.098;14.422;2023-05-10T05:00:11;5.20;;;4.20;;
1358;SDS011;673;48.098;14.422;2023-05-10T05:02:41;3.30;;;3.00;;
1358;SDS011;673;48.098;14.422;2023-05-10T05:05:09;4.10;;;3.70;;
1358;SDS011;673;48.098;14.422;2023-05-10T05:07:35;5.07;;;3.93;;
1358;SDS011;673;48.098;14.422;2023-05-10T05:10:05;3.67;;;3.33;;
1358;SDS011;673;48.098;14.422;2023-05-10T05:12:33;5.83;;;5.13;;
1358;SDS011;673;48.098;14.422;2023-05-10T05:15:00;4.57;;;4.10;;
1358;SDS011;673;48.098;14.422;2023-05-10T05:17:27;4.97;;;4.20;;
1358;SDS011;673;48.098;14.422;2023-05-10T05:19:56;6.20;;;4.00;;
1358;SDS011;673;48.098;14.422;2023-05-10T05:22:23;4.40;;;4.00;;
1358;SDS011;673;48.098;14.422;2023-05-10T05:24:52;5.07;;;4.60;;
1358;SDS011;673;48.098;14.422;2023-05-10T05:27:21;3.30;;;2.83;;
1358;SDS011;673;48.098;14.422;2023-05-10T05:29:49;3.27;;;3.07;;
1358;SDS011;673;48.098;14.422;2023-05-10T05:32:16;4.33;;;3.73;;
1358;SDS011;673;48.098;14.422;2023-05-10T05:34:43;3.17;;;2.97;;
1358;SDS011;673;48.098;14.422;2023-05-10T05:37:12;4.60;;;3.90;;
1358;SDS011;673;48.098;14.422;2023-05-10T05:39:40;5.93;;;3.60;;
1358;SDS011;673;48.098;14.422;2023-05-10T05:42:07;3.60;;;3.30;;
1358;SDS011;673;48.098;14.422;2023-05-10T05:44:36;4.20;;;2.50;;
1358;SDS011;673;48.098;14.422;2023-05-10T05:47:03;4.37;;;2.63;;
1358;SDS011;673;48.098;14.422;2023-05-10T05:49:30;2.70;;;2.50;;
1358;SDS011;673;48.098;14.422;2023-05-10T05:51:58;4.07;;;3.77;;
1358;SDS011;673;48.098;14.422;2023-05-10T05:54:26;6.13;;;2.90;;
1358;SDS011;673;48.098;14.422;2023-05-10T05:56:53;3.07;;;2.77;;
1358;SDS011;673;48.098;14.422;2023-05-10T05:59:21;3.00;;;2.80;;
1358;SDS011;673;48.098;14.422;2023-05-10T06:01:50;3.03;;;2.80;;
1358;SDS011;673;48.098;14.422;2023-05-10T06:04:17;3.30;;;3.00;;
1358;SDS011;673;48.098;14.422;2023-05-10T06:06:44;3.30;;;3.00;;
1358;SDS011;673;48.098;14.422;2023-05-10T06:09:12;6.03;;;2.90;;
1358;SDS011;673;48.098;14.422;2023-05-10T06:11:39;3.77;;;2.83;;
1358;SDS011;673;48.098;14.422;2023-05-10T06:14:06;5.50;;;3.70;;
1358;SDS011;673;48.098;14.422;2023-05-10T06:16:33;3.50;;;3.00;;
1358;SDS011;673;48.098;14.422;2023-05-10T06:19:01;4.87;;;3.83;;
1358;SDS011;673;48.098;14.422;2023-05-10T06:21:28;4.60;;;4.20;;
1358;SDS011;673;48.098;14.422;2023-05-10T06:23:56;4.23;;;3.77;;
1358;SDS011;673;48.098;14.422;2023-05-10T06:26:23;4.70;;;3.47;;
1358;SDS011;673;48.098;14.422;2023-05-10T06:28:50;7.70;;;4.57;;
1358;SDS011;673;48.098;14.422;2023-05-10T06:31:17;5.33;;;4.80;;
1358;SDS011;673;48.098;14.422;2023-05-10T06:33:44;6.20;;;5.53;;
1358;SDS011;673;48.098;14.422;2023-05-10T06:36:12;6.60;;;5.90;;
1358;SDS011;673;48.098;14.422;2023-05-10T06:38:39;6.77;;;5.10;;
1358;SDS011;673;48.098;14.422;2023-05-10T06:41:07;6.10;;;5.50;;
1358;SDS011;673;48.098;14.422;2023-05-10T06:43:34;13.77;;;6.90;;
1358;SDS011;673;48.098;14.422;2023-05-10T06:46:04;8.73;;;6.67;;
1358;SDS011;673;48.098;14.422;2023-05-10T06:48:32;8.87;;;7.80;;
1358;SDS011;673;48.098;14.422;2023-05-10T06:50:59;8.43;;;7.47;;
1358;SDS011;673;48.098;14.422;2023-05-10T06:53:27;8.30;;;6.67;;
1358;SDS011;673;48.098;14.422;2023-05-10T06:55:54;8.63;;;6.43;;
1358;SDS011;673;48.098;14.422;2023-05-10T06:58:21;6.53;;;5.90;;
1358;SDS011;673;48.098;14.422;2023-05-10T07:00:48;12.17;;;7.07;;
1358;SDS011;673;48.098;14.422;2023-05-10T07:03:15;5.30;;;4.90;;
1358;SDS011;673;48.098;14.422;2023-05-10T07:05:42;6.23;;;5.30;;
1358;SDS011;673;48.098;14.422;2023-05-10T07:08:09;6.10;;;5.30;;
1358;SDS011;673;48.098;14.422;2023-05-10T07:10:38;5.07;;;4.67;;
1358;SDS011;673;48.098;14.422;2023-05-10T07:13:05;5.30;;;4.73;;
1358;SDS011;673;48.098;14.422;2023-05-10T07:15:32;6.47;;;5.70;;
1358;SDS011;673;48.098;14.422;2023-05-10T07:17:59;5.60;;;5.10;;
1358;SDS011;673;48.098;14.422;2023-05-10T07:20:27;5.47;;;5.07;;
1358;SDS011;673;48.098;14.422;2023-05-10T07:22:54;4.10;;;3.70;;
1358;SDS011;673;48.098;14.422;2023-05-10T07:25:21;4.87;;;4.47;;
1358;SDS011;673;48.098;14.422;2023-05-10T07:27:50;4.93;;;4.50;;
1358;SDS011;673;48.098;14.422;2023-05-10T07:30:17;5.10;;;4.60;;
1358;SDS011;673;48.098;14.422;2023-05-10T07:32:44;4.33;;;3.93;;
1358;SDS011;673;48.098;14.422;2023-05-10T07:35:11;4.07;;;3.63;;
1358;SDS011;673;48.098;14.422;2023-05-10T07:37:38;3.73;;;3.40;;
1358;SDS011;673;48.098;14.422;2023-05-10T07:40:06;4.77;;;4.37;;
1358;SDS011;673;48.098;14.422;2023-05-10T07:42:34;4.00;;;3.70;;
1358;SDS011;673;48.098;14.422;2023-05-10T07:45:02;3.70;;;3.17;;
1358;SDS011;673;48.098;14.422;2023-05-10T07:47:30;4.83;;;4.03;;
1358;SDS011;673;48.098;14.422;2023-05-10T07:49:57;3.70;;;3.40;;
1358;SDS011;673;48.098;14.422;2023-05-10T07:52:24;4.27;;;2.97;;
1358;SDS011;673;48.098;14.422;2023-05-10T07:54:51;4.33;;;3.97;;
1358;SDS011;673;48.098;14.422;2023-05-10T07:57:18;5.23;;;4.17;;
1358;SDS011;673;48.098;14.422;2023-05-10T07:59:45;3.50;;;3.20;;
1358;SDS011;673;48.098;14.422;2023-05-10T08:02:15;4.00;;;3.63;;
1358;SDS011;673;48.098;14.422;2023-05-10T08:04:42;5.00;;;4.50;;
1358;SDS011;673;48.098;14.422;2023-05-10T08:07:09;4.17;;;3.83;;
1358;SDS011;673;48.098;14.422;2023-05-10T08:09:36;3.83;;;3.53;;
1358;SDS011;673;48.098;14.422;2023-05-10T08:12:03;5.17;;;3.30;;
1358;SDS011;673;48.098;14.422;2023-05-10T08:14:30;5.20;;;4.30;;
1358;SDS011;673;48.098;14.422;2023-05-10T08:16:57;5.93;;;4.10;;
1358;SDS011;673;48.098;14.422;2023-05-10T08:19:26;8.67;;;7.87;;
1358;SDS011;673;48.098;14.422;2023-05-10T08:21:53;4.90;;;4.50;;
1358;SDS011;673;48.098;14.422;2023-05-10T08:24:20;4.73;;;4.33;;
1358;SDS011;673;48.098;14.422;2023-05-10T08:26:47;9.43;;;4.90;;
1358;SDS011;673;48.098;14.422;2023-05-10T08:29:14;5.30;;;4.80;;
1358;SDS011;673;48.098;14.422;2023-05-10T08:31:42;5.63;;;5.13;;
1358;SDS011;673;48.098;14.422;2023-05-10T08:34:08;4.70;;;4.30;;
1358;SDS011;673;48.098;14.422;2023-05-10T08:36:37;4.90;;;4.40;;
1358;SDS011;673;48.098;14.422;2023-05-10T08:39:04;4.53;;;4.13;;
1358;SDS011;673;48.098;14.422;2023-05-10T08:41:31;5.10;;;4.63;;
1358;SDS011;673;48.098;14.422;2023-05-10T08:44:02;14.97;;;7.40;;
1358;SDS011;673;48.098;14.422;2023-05-10T08:46:31;6.80;;;5.90;;
1358;SDS011;673;48.098;14.422;2023-05-10T08:49:01;7.80;;;7.10;;
1358;SDS011;673;48.098;14.422;2023-05-10T08:51:31;5.07;;;4.63;;
1358;SDS011;673;48.098;14.422;2023-05-10T08:54:03;6.03;;;5.60;;
1358;SDS011;673;48.098;14.422;2023-05-10T08:56:31;5.13;;;4.73;;
1358;SDS011;673;48.098;14.422;2023-05-10T08:58:58;4.70;;;4.40;;
1358;SDS011;673;48.098;14.422;2023-05-10T09:01:26;6.83;;;5.87;;
1358;SDS011;673;48.098;14.422;2023-05-10T09:03:53;5.97;;;5.47;;
1358;SDS011;673;48.098;14.422;2023-05-10T09:06:21;6.10;;;5.60;;
1358;SDS011;673;48.098;14.422;2023-05-10T09:08:48;6.67;;;5.00;;
1358;SDS011;673;48.098;14.422;2023-05-10T09:11:17;7.83;;;7.20;;
1358;SDS011;673;48.098;14.422;2023-05-10T09:13:46;4.77;;;4.37;;
1358;SDS011;673;48.098;14.422;2023-05-10T09:16:14;6.63;;;6.03;;
1358;SDS011;673;48.098;14.422;2023-05-10T09:18:41;10.33;;;4.60;;
1358;SDS011;673;48.098;14.422;2023-05-10T09:21:08;5.90;;;5.40;;
1358;SDS011;673;48.098;14.422;2023-05-10T09:23:36;8.47;;;6.90;;
1358;SDS011;673;48.098;14.422;2023-05-10T09:26:03;5.50;;;4.97;;
1358;SDS011;673;48.098;14.422;2023-05-10T09:28:32;6.33;;;5.37;;
1358;SDS011;673;48.098;14.422;2023-05-10T09:31:00;6.93;;;6.43;;
1358;SDS011;673;48.098;14.422;2023-05-10T09:33:27;6.40;;;5.83;;
1358;SDS011;673;48.098;14.422;2023-05-10T09:35:54;8.13;;;6.77;;
1358;SDS011;673;48.098;14.422;2023-05-10T09:38:21;7.30;;;6.70;;
1358;SDS011;673;48.098;14.422;2023-05-10T09:40:51;7.30;;;6.43;;
1358;SDS011;673;48.098;14.422;2023-05-10T09:43:20;6.20;;;5.73;;
1358;SDS011;673;48.098;14.422;2023-05-10T09:45:49;7.50;;;6.80;;
1358;SDS011;673;48.098;14.422;2023-05-10T09:48:16;6.90;;;6.30;;
1358;SDS011;673;48.098;14.422;2023-05-10T09:50:43;7.50;;;6.53;;
1358;SDS011;673;48.098;14.422;2023-05-10T09:53:10;7.10;;;6.40;;
1358;SDS011;673;48.098;14.422;2023-05-10T09:55:42;5.43;;;5.13;;
1358;SDS011;673;48.098;14.422;2023-05-10T09:58:12;7.53;;;5.70;;
1358;SDS011;673;48.098;14.422;2023-05-10T10:00:39;6.67;;;6.17;;
1358;SDS011;673;48.098;14.422;2023-05-10T10:03:13;7.47;;;6.87;;
1358;SDS011;673;48.098;14.422;2023-05-10T10:05:41;7.07;;;6.57;;
1358;SDS011;673;48.098;14.422;2023-05-10T10:08:09;7.37;;;6.67;;
1358;SDS011;673;48.098;14.422;2023-05-10T10:10:37;6.13;;;5.40;;
1358;SDS011;673;48.098;14.422;2023-05-10T10:13:05;7.43;;;6.50;;
1358;SDS011;673;48.098;14.422;2023-05-10T10:15:33;6.53;;;5.93;;
1358;SDS011;673;48.098;14.422;2023-05-10T10:18:00;7.83;;;6.63;;
1358;SDS011;673;48.098;14.422;2023-05-10T10:20:30;6.57;;;6.07;;
1358;SDS011;673;48.098;14.422;2023-05-10T10:22:56;6.20;;;5.60;;
1358;SDS011;673;48.098;14.422;2023-05-10T10:25:23;6.93;;;6.37;;
1358;SDS011;673;48.098;14.422;2023-05-10T10:27:56;6.40;;;5.83;;
1358;SDS011;673;48.098;14.422;2023-05-10T10:30:35;6.57;;;5.97;;
1358;SDS011;673;48.098;14.422;2023-05-10T10:33:23;7.07;;;6.57;;
1358;SDS011;673;48.098;14.422;2023-05-10T10:36:04;6.17;;;5.77;;
1358;SDS011;673;48.098;14.422;2023-05-10T10:38:38;8.33;;;7.57;;
1358;SDS011;673;48.098;14.422;2023-05-10T10:41:28;6.73;;;6.00;;
1358;SDS011;673;48.098;14.422;2023-05-10T10:46:58;6.63;;;6.03;;
1358;SDS011;673;48.098;14.422;2023-05-10T10:49:27;7.10;;;6.60;;
1358;SDS011;673;48.098;14.422;2023-05-10T10:54:49;7.43;;;6.80;;
1358;SDS011;673;48.098;14.422;2023-05-10T10:57:18;6.93;;;6.30;;
1358;SDS011;673;48.098;14.422;2023-05-10T10:59:46;7.33;;;6.40;;
1358;SDS011;673;48.098;14.422;2023-05-10T11:02:32;8.70;;;7.93;;
1358;SDS011;673;48.098;14.422;2023-05-10T11:05:00;7.00;;;6.27;;
1358;SDS011;673;48.098;14.422;2023-05-10T11:08:13;8.20;;;7.50;;
1358;SDS011;673;48.098;14.422;2023-05-10T11:13:33;6.60;;;6.20;;
1358;SDS011;673;48.098;14.422;2023-05-10T11:16:10;7.27;;;6.67;;
1358;SDS011;673;48.098;14.422;2023-05-10T11:18:41;7.30;;;6.70;;
1358;SDS011;673;48.098;14.422;2023-05-10T11:21:19;7.33;;;6.63;;
1358;SDS011;673;48.098;14.422;2023-05-10T11:23:51;6.90;;;6.40;;
1358;SDS011;673;48.098;14.422;2023-05-10T11:26:21;7.30;;;6.80;;
1358;SDS011;673;48.098;14.422;2023-05-10T11:28:51;7.03;;;6.50;;
1358;SDS011;673;48.098;14.422;2023-05-10T11:31:20;6.40;;;5.90;;
1358;SDS011;673;48.098;14.422;2023-05-10T11:33:48;7.50;;;6.83;;
1358;SDS011;673;48.098;14.422;2023-05-10T11:36:16;6.87;;;6.30;;
1358;SDS011;673;48.098;14.422;2023-05-10T11:38:44;6.43;;;5.83;;
1358;SDS011;673;48.098;14.422;2023-05-10T11:41:14;6.60;;;5.90;;
1358;SDS011;673;48.098;14.422;2023-05-10T11:43:44;7.50;;;6.90;;
1358;SDS011;673;48.098;14.422;2023-05-10T11:46:14;6.80;;;6.30;;
1358;SDS011;673;48.098;14.422;2023-05-10T11:48:42;7.70;;;7.10;;
1358;SDS011;673;48.098;14.422;2023-05-10T11:51:10;8.60;;;7.80;;
1358;SDS011;673;48.098;14.422;2023-05-10T11:53:37;8.43;;;7.60;;
1358;SDS011;673;48.098;14.422;2023-05-10T11:56:05;9.37;;;8.57;;
1358;SDS011;673;48.098;14.422;2023-05-10T11:58:34;12.93;;;10.20;;
1358;SDS011;673;48.098;14.422;2023-05-10T12:01:02;9.03;;;8.43;;
1358;SDS011;673;48.098;14.422;2023-05-10T12:03:30;10.07;;;9.20;;
1358;SDS011;673;48.098;14.422;2023-05-10T12:05:58;8.13;;;7.43;;
1358;SDS011;673;48.098;14.422;2023-05-10T12:08:26;10.10;;;9.17;;
1358;SDS011;673;48.098;14.422;2023-05-10T12:11:03;9.70;;;8.90;;
1358;SDS011;673;48.098;14.422;2023-05-10T12:13:31;41.40;;;37.03;;
1358;SDS011;673;48.098;14.422;2023-05-10T12:16:12;10.00;;;9.20;;
1358;SDS011;673;48.098;14.422;2023-05-10T12:18:40;7.73;;;7.13;;
1358;SDS011;673;48.098;14.422;2023-05-10T12:21:07;9.70;;;8.90;;
1358;SDS011;673;48.098;14.422;2023-05-10T12:23:36;8.23;;;7.53;;
1358;SDS011;673;48.098;14.422;2023-05-10T12:26:03;9.60;;;8.73;;
1358;SDS011;673;48.098;14.422;2023-05-10T12:28:31;14.63;;;12.40;;
1358;SDS011;673;48.098;14.422;2023-05-10T12:31:00;12.90;;;10.33;;
1358;SDS011;673;48.098;14.422;2023-05-10T12:33:34;13.63;;;11.87;;
1358;SDS011;673;48.098;14.422;2023-05-10T12:36:04;6.60;;;6.10;;
1358;SDS011;673;48.098;14.422;2023-05-10T12:38:32;5.63;;;5.23;;
1358;SDS011;673;48.098;14.422;2023-05-10T12:41:01;6.53;;;6.03;;
1358;SDS011;673;48.098;14.422;2023-05-10T12:43:29;5.00;;;4.50;;
1358;SDS011;673;48.098;14.422;2023-05-10T12:45:58;4.80;;;4.50;;
1358;SDS011;673;48.098;14.422;2023-05-10T12:48:25;5.13;;;4.83;;
1358;SDS011;673;48.098;14.422;2023-05-10T12:50:53;5.37;;;5.03;;
1358;SDS011;673;48.098;14.422;2023-05-10T12:53:20;4.70;;;4.40;;
1358;SDS011;673;48.098;14.422;2023-05-10T12:55:47;5.37;;;4.97;;
1358;SDS011;673;48.098;14.422;2023-05-10T12:58:14;5.50;;;5.20;;
1358;SDS011;673;48.098;14.422;2023-05-10T13:00:41;4.87;;;4.47;;
1358;SDS011;673;48.098;14.422;2023-05-10T13:03:10;5.83;;;5.37;;
1358;SDS011;673;48.098;14.422;2023-05-10T13:05:37;6.90;;;6.40;;
1358;SDS011;673;48.098;14.422;2023-05-10T13:08:04;5.47;;;5.07;;
1358;SDS011;673;48.098;14.422;2023-05-10T13:10:31;7.13;;;6.63;;
1358;SDS011;673;48.098;14.422;2023-05-10T13:12:58;6.20;;;5.70;;
1358;SDS011;673;48.098;14.422;2023-05-10T13:15:25;5.20;;;4.70;;
1358;SDS011;673;48.098;14.422;2023-05-10T13:17:53;6.17;;;5.63;;
1358;SDS011;673;48.098;14.422;2023-05-10T13:20:21;7.30;;;6.47;;
1358;SDS011;673;48.098;14.422;2023-05-10T13:22:48;5.67;;;5.17;;
1358;SDS011;673;48.098;14.422;2023-05-10T13:25:15;6.23;;;5.63;;
1358;SDS011;673;48.098;14.422;2023-05-10T13:27:42;6.60;;;6.10;;
1358;SDS011;673;48.098;14.422;2023-05-10T13:30:10;6.83;;;6.27;;
1358;SDS011;673;48.098;14.422;2023-05-10T13:32:37;4.73;;;4.23;;
1358;SDS011;673;48.098;14.422;2023-05-10T13:35:05;3.10;;;2.90;;
1358;SDS011;673;48.098;14.422;2023-05-10T13:37:33;4.37;;;4.03;;
1358;SDS011;673;48.098;14.422;2023-05-10T13:40:02;2.20;;;2.10;;
1358;SDS011;673;48.098;14.422;2023-05-10T13:42:30;0.93;;;0.93;;
1358;SDS011;673;48.098;14.422;2023-05-10T13:44:58;0.67;;;0.67;;
1358;SDS011;673;48.098;14.422;2023-05-10T13:47:25;0.60;;;0.60;;
1358;SDS011;673;48.098;14.422;2023-05-10T13:49:52;1.00;;;0.70;;
1358;SDS011;673;48.098;14.422;2023-05-10T13:52:19;0.60;;;0.60;;
1358;SDS011;673;48.098;14.422;2023-05-10T13:54:48;1.60;;;0.50;;
1358;SDS011;673;48.098;14.422;2023-05-10T13:57:17;1.70;;;0.70;;
1358;SDS011;673;48.098;14.422;2023-05-10T13:59:44;1.47;;;0.60;;
1358;SDS011;673;48.098;14.422;2023-05-10T14:02:11;0.60;;;0.57;;
1358;SDS011;673;48.098;14.422;2023-05-10T14:04:38;0.80;;;0.80;;
1358;SDS011;673;48.098;14.422;2023-05-10T14:07:05;0.70;;;0.60;;
1358;SDS011;673;48.098;14.422;2023-05-10T14:09:32;0.80;;;0.60;;
1358;SDS011;673;48.098;14.422;2023-05-10T14:12:00;1.17;;;0.70;;
1358;SDS011;673;48.098;14.422;2023-05-10T14:14:27;0.70;;;0.70;;
1358;SDS011;673;48.098;14.422;2023-05-10T14:16:54;0.90;;;0.70;;
1358;SDS011;673;48.098;14.422;2023-05-10T14:19:21;5.63;;;2.40;;
1358;SDS011;673;48.098;14.422;2023-05-10T14:21:48;1.17;;;0.93;;
1358;SDS011;673;48.098;14.422;2023-05-10T14:24:17;0.60;;;0.60;;
1358;SDS011;673;48.098;14.422;2023-05-10T14:26:43;0.67;;;0.67;;
1358;SDS011;673;48.098;14.422;2023-05-10T14:29:12;1.27;;;1.00;;
1358;SDS011;673;48.098;14.422;2023-05-10T14:31:39;0.77;;;0.63;;
1358;SDS011;673;48.098;14.422;2023-05-10T14:34:06;0.50;;;0.50;;
1358;SDS011;673;48.098;14.422;2023-05-10T14:36:33;1.33;;;0.67;;
1358;SDS011;673;48.098;14.422;2023-05-10T14:39:00;3.03;;;0.73;;
1358;SDS011;673;48.098;14.422;2023-05-10T14:41:27;0.80;;;0.60;;
1358;SDS011;673;48.098;14.422;2023-05-10T14:43:55;2.53;;;1.40;;
1358;SDS011;673;48.098;14.422;2023-05-10T14:46:23;3.10;;;1.30;;
1358;SDS011;673;48.098;14.422;2023-05-10T14:48:50;1.00;;;0.90;;
1358;SDS011;673;48.098;14.422;2023-05-10T14:51:17;1.93;;;1.03;;
1358;SDS011;673;48.098;14.422;2023-05-10T14:53:46;2.50;;;1.30;;
1358;SDS011;673;48.098;14.422;2023-05-10T14:56:14;1.90;;;0.90;;
1358;SDS011;673;48.098;14.422;2023-05-10T14:58:41;0.80;;;0.80;;
1358;SDS011;673;48.098;14.422;2023-05-10T15:01:08;2.03;;;1.60;;
1358;SDS011;673;48.098;14.422;2023-05-10T15:03:36;2.70;;;1.73;;
1358;SDS011;673;48.098;14.422;2023-05-10T15:06:03;5.40;;;1.77;;
1358;SDS011;673;48.098;14.422;2023-05-10T15:08:30;2.97;;;1.50;;
1358;SDS011;673;48.098;14.422;2023-05-10T15:10:57;19.33;;;7.03;;
1358;SDS011;673;48.098;14.422;2023-05-10T15:13:24;5.23;;;3.33;;
1358;SDS011;673;48.098;14.422;2023-05-10T15:15:51;2.37;;;1.67;;
1358;SDS011;673;48.098;14.422;2023-05-10T15:18:18;19.23;;;6.03;;
1358;SDS011;673;48.098;14.422;2023-05-10T15:20:47;11.73;;;5.43;;
1358;SDS011;673;48.098;14.422;2023-05-10T15:23:14;15.83;;;12.07;;
1358;SDS011;673;48.098;14.422;2023-05-10T15:25:41;6.23;;;5.63;;
1358;SDS011;673;48.098;14.422;2023-05-10T15:28:08;1.87;;;1.67;;
1358;SDS011;673;48.098;14.422;2023-05-10T15:30:34;1.20;;;1.10;;
1358;SDS011;673;48.098;14.422;2023-05-10T15:33:01;0.87;;;0.87;;